Time;durP1;ratioP1;P1;durP2;ratioP2;P2;SDS_P1;SDS_P2;PMS_P1;PMS_P2;Temp;Humidity;BMP_temperature;BMP_pressure;BME280_temperature;BME280_humidity;BME280_pressure;Samples;Min_cycle;Max_cycle;Signal;HPM_P1;HPM_P2
2023/04/02 00:01:51;;;;;;;10.85;5.68;;;;;;;;;;5009549;28;20551;-58
2023/04/02 00:04:21;;;;;;;11.13;5.40;;;;;;;;;;5010305;28;20053;-58
2023/04/02 00:06:48;;;;;;;9.30;5.45;;;;;;;;;;5008621;28;20041;-58
2023/04/02 00:09:14;;;;;;;9.20;5.45;;;;;;;;;;5010860;28;20540;-58
2023/04/02 00:11:45;;;;;;;8.45;5.70;;;;;;;;;;4998303;28;20096;-58
2023/04/02 00:14:32;;;;;;;9.15;5.25;;;;;;;;;;4989780;28;20049;-58
2023/04/02 00:17:00;;;;;;;18.55;5.90;;;;;;;;;;5007413;28;20046;-58
2023/04/02 00:19:29;;;;;;;9.45;5.05;;;;;;;;;;5011330;28;20081;-59
2023/04/02 00:21:56;;;;;;;10.63;6.03;;;;;;;;;;5008659;28;20046;-59
2023/04/02 00:24:22;;;;;;;9.18;5.65;;;;;;;;;;5006369;28;20042;-58
2023/04/02 00:26:50;;;;;;;13.73;5.55;;;;;;;;;;5010852;28;20129;-58
2023/04/02 00:29:17;;;;;;;14.15;6.43;;;;;;;;;;5011598;28;20048;-58
2023/04/02 00:31:47;;;;;;;10.27;5.93;;;;;;;;;;5001011;28;20562;-58
2023/04/02 00:34:19;;;;;;;11.65;5.97;;;;;;;;;;5011407;28;20050;-58
2023/04/02 00:36:45;;;;;;;13.07;6.60;;;;;;;;;;5008862;28;20048;-59
2023/04/02 00:39:16;;;;;;;14.13;6.28;;;;;;;;;;5009615;28;20068;-59
2023/04/02 00:41:45;;;;;;;9.57;6.22;;;;;;;;;;5008712;28;20045;-59
2023/04/02 00:44:20;;;;;;;20.63;7.53;;;;;;;;;;5008157;28;20124;-59
2023/04/02 00:46:48;;;;;;;15.25;6.40;;;;;;;;;;5007638;28;20067;-58
2023/04/02 00:49:35;;;;;;;11.98;5.85;;;;;;;;;;5009991;28;20566;-59
2023/04/02 00:52:04;;;;;;;9.88;6.03;;;;;;;;;;5009040;28;20580;-59
2023/04/02 00:54:32;;;;;;;16.70;6.82;;;;;;;;;;5024939;28;20046;-59
2023/04/02 00:56:58;;;;;;;10.43;5.75;;;;;;;;;;5011784;28;20104;-59
2023/04/02 00:59:27;;;;;;;11.52;6.55;;;;;;;;;;5003459;28;20539;-59
2023/04/02 01:02:00;;;;;;;9.85;5.18;;;;;;;;;;5008976;28;20528;-59
2023/04/02 01:04:32;;;;;;;11.82;6.32;;;;;;;;;;5013421;28;20046;-59
2023/04/02 01:07:00;;;;;;;12.32;6.20;;;;;;;;;;5007873;28;20038;-59
2023/04/02 01:09:38;;;;;;;12.05;7.32;;;;;;;;;;5008014;28;20038;-59
2023/04/02 01:12:19;;;;;;;12.05;6.05;;;;;;;;;;5004004;28;20034;-58
2023/04/02 01:14:45;;;;;;;15.00;5.70;;;;;;;;;;5010706;28;20049;-58
2023/04/02 01:17:18;;;;;;;12.05;5.55;;;;;;;;;;5007991;28;20053;-58
2023/04/02 01:19:47;;;;;;;13.20;6.72;;;;;;;;;;5010765;28;20054;-58
2023/04/02 01:22:33;;;;;;;10.77;6.03;;;;;;;;;;5011524;28;20045;-58
2023/04/02 01:25:00;;;;;;;10.50;6.00;;;;;;;;;;5011898;28;20132;-58
2023/04/02 01:27:35;;;;;;;9.25;5.63;;;;;;;;;;5006914;28;20598;-58
2023/04/02 01:30:02;;;;;;;11.85;5.97;;;;;;;;;;5009760;28;20185;-58
2023/04/02 01:32:29;;;;;;;11.43;5.45;;;;;;;;;;5007269;28;20046;-58
2023/04/02 01:34:56;;;;;;;12.27;6.55;;;;;;;;;;5011064;28;20052;-58
2023/04/02 01:37:26;;;;;;;12.88;7.45;;;;;;;;;;5008972;28;21263;-58
2023/04/02 01:40:11;;;;;;;12.73;6.05;;;;;;;;;;5008894;28;20046;-58
2023/04/02 01:43:00;;;;;;;12.98;5.75;;;;;;;;;;5016133;28;20045;-58
2023/04/02 01:45:28;;;;;;;14.60;6.47;;;;;;;;;;5006466;28;20133;-58
2023/04/02 01:47:55;;;;;;;13.23;6.68;;;;;;;;;;5011422;28;20038;-58
2023/04/02 01:50:35;;;;;;;11.50;5.43;;;;;;;;;;5007562;28;20042;-57
2023/04/02 01:53:03;;;;;;;16.15;6.13;;;;;;;;;;5010043;28;20585;-58
2023/04/02 01:55:40;;;;;;;11.95;5.82;;;;;;;;;;5010583;28;20046;-57
2023/04/02 01:58:07;;;;;;;8.75;5.57;;;;;;;;;;5009778;28;20041;-58
2023/04/02 02:00:35;;;;;;;16.75;5.57;;;;;;;;;;5002629;28;20523;-58
2023/04/02 02:03:02;;;;;;;10.90;5.43;;;;;;;;;;5012307;28;20516;-58
2023/04/02 02:05:28;;;;;;;11.05;5.68;;;;;;;;;;5009967;28;20042;-58
2023/04/02 02:07:55;;;;;;;13.05;5.63;;;;;;;;;;5009099;28;20050;-57
2023/04/02 02:10:24;;;;;;;16.17;7.40;;;;;;;;;;5004567;28;20037;-58
2023/04/02 02:12:51;;;;;;;12.10;5.90;;;;;;;;;;5011811;28;20092;-58
2023/04/02 02:15:18;;;;;;;12.05;5.63;;;;;;;;;;4998882;28;20046;-58
2023/04/02 02:17:44;;;;;;;8.18;5.20;;;;;;;;;;5010931;28;20132;-58
2023/04/02 02:20:11;;;;;;;14.60;7.13;;;;;;;;;;5003700;28;20545;-58
2023/04/02 02:22:39;;;;;;;13.00;6.68;;;;;;;;;;4999602;28;20082;-58
2023/04/02 02:25:17;;;;;;;8.60;4.60;;;;;;;;;;5000377;28;20563;-58
2023/04/02 02:27:46;;;;;;;9.85;5.55;;;;;;;;;;5009396;28;20042;-58
2023/04/02 02:30:15;;;;;;;12.48;5.72;;;;;;;;;;5003597;28;20050;-58
2023/04/02 02:32:52;;;;;;;9.85;5.65;;;;;;;;;;5006753;28;20046;-58
2023/04/02 02:35:23;;;;;;;11.80;5.43;;;;;;;;;;5006063;28;20053;-58
2023/04/02 02:37:56;;;;;;;11.60;6.03;;;;;;;;;;5012934;28;20048;-58
2023/04/02 02:40:27;;;;;;;7.88;4.47;;;;;;;;;;5004378;28;20043;-58
2023/04/02 02:43:03;;;;;;;12.43;6.68;;;;;;;;;;5008980;28;20050;-58
2023/04/02 02:45:33;;;;;;;12.23;6.28;;;;;;;;;;5005974;28;21119;-58
2023/04/02 02:48:00;;;;;;;13.98;5.07;;;;;;;;;;5009177;28;21296;-58
2023/04/02 02:50:30;;;;;;;13.93;5.78;;;;;;;;;;5002678;28;20039;-58
2023/04/02 02:53:02;;;;;;;9.20;5.47;;;;;;;;;;5006083;28;20089;-58
2023/04/02 02:55:28;;;;;;;;;;;;;;;;;;5005619;28;20894;-59
2023/04/02 02:58:07;;;;;;;11.70;5.50;;;;;;;;;;5007612;28;20021;-58
2023/04/02 03:00:34;;;;;;;11.48;5.88;;;;;;;;;;5011909;28;20035;-58
2023/04/02 03:03:03;;;;;;;7.20;3.53;;;;;;;;;;5007493;28;20089;-58
2023/04/02 03:05:30;;;;;;;14.30;6.40;;;;;;;;;;5006791;28;20064;-58
2023/04/02 03:07:56;;;;;;;10.75;5.20;;;;;;;;;;5006852;28;20129;-58
2023/04/02 03:10:29;;;;;;;11.13;4.93;;;;;;;;;;5010845;28;20669;-58
2023/04/02 03:13:14;;;;;;;8.63;3.95;;;;;;;;;;5020679;28;20109;-58
2023/04/02 03:16:01;;;;;;;8.20;4.65;;;;;;;;;;5008118;28;20052;-58
2023/04/02 03:18:30;;;;;;;10.02;4.18;;;;;;;;;;5010603;28;20046;-58
2023/04/02 03:21:00;;;;;;;5.85;3.35;;;;;;;;;;5006787;28;20102;-58
2023/04/02 03:23:32;;;;;;;5.43;3.42;;;;;;;;;;5009965;28;20049;-58
2023/04/02 03:26:10;;;;;;;7.15;4.55;;;;;;;;;;5008560;28;20052;-58
2023/04/02 03:28:40;;;;;;;6.80;4.15;;;;;;;;;;5009532;28;20122;-58
2023/04/02 03:31:09;;;;;;;8.15;4.72;;;;;;;;;;5007266;28;20037;-59
2023/04/02 03:33:39;;;;;;;5.00;2.65;;;;;;;;;;5012274;28;20444;-58
2023/04/02 03:36:22;;;;;;;7.13;3.70;;;;;;;;;;5007147;28;20085;-58
2023/04/02 03:38:47;;;;;;;;;;;;;;;;;;5007458;28;20052;-58
2023/04/02 03:41:16;;;;;;;3.95;2.33;;;;;;;;;;5008777;28;19927;-58
2023/04/02 03:43:46;;;;;;;5.50;3.00;;;;;;;;;;5012329;28;20176;-58
2023/04/02 03:46:23;;;;;;;11.52;3.92;;;;;;;;;;5010488;28;20051;-58
2023/04/02 03:48:52;;;;;;;7.13;3.78;;;;;;;;;;5014212;28;20050;-58
2023/04/02 03:51:24;;;;;;;8.13;3.83;;;;;;;;;;5010456;28;20152;-58
2023/04/02 03:53:50;;;;;;;4.43;2.30;;;;;;;;;;5013968;28;20847;-58
2023/04/02 03:56:27;;;;;;;4.05;2.30;;;;;;;;;;5010183;28;20380;-58
2023/04/02 03:59:14;;;;;;;6.47;2.33;;;;;;;;;;5009380;28;20358;-58
2023/04/02 04:01:48;;;;;;;9.65;2.85;;;;;;;;;;5009271;28;20061;-58
2023/04/02 04:04:17;;;;;;;2.47;1.52;;;;;;;;;;5005957;28;20065;-58
2023/04/02 04:06:44;;;;;;;5.03;3.00;;;;;;;;;;5002327;28;20149;-59
2023/04/02 04:09:16;;;;;;;3.72;2.63;;;;;;;;;;5010294;28;20048;-59
2023/04/02 04:11:47;;;;;;;4.15;2.28;;;;;;;;;;4991490;28;21013;-58
2023/04/02 04:14:18;;;;;;;5.15;2.55;;;;;;;;;;5004353;28;20701;-59
2023/04/02 04:16:53;;;;;;;5.80;3.63;;;;;;;;;;5007028;28;20042;-58
2023/04/02 04:19:28;;;;;;;4.25;2.33;;;;;;;;;;5008517;28;20057;-58
2023/04/02 04:22:08;;;;;;;4.28;2.70;;;;;;;;;;4990494;28;20046;-59
2023/04/02 04:24:38;;;;;;;4.65;2.05;;;;;;;;;;5008309;28;20072;-58
2023/04/02 04:27:33;;;;;;;6.43;2.08;;;;;;;;;;5011248;28;20230;-58
2023/04/02 04:30:13;;;;;;;6.30;3.50;;;;;;;;;;4998657;28;20050;-59
2023/04/02 04:32:56;;;;;;;6.45;2.50;;;;;;;;;;5007275;28;20472;-59
2023/04/02 04:35:31;;;;;;;3.10;1.80;;;;;;;;;;5007052;28;20054;-59
2023/04/02 04:38:02;;;;;;;2.58;1.73;;;;;;;;;;5008512;28;20500;-59
2023/04/02 04:40:30;;;;;;;6.10;3.37;;;;;;;;;;5009268;28;20038;-58
2023/04/02 04:42:59;;;;;;;5.82;2.10;;;;;;;;;;5002329;28;20092;-59
2023/04/02 04:45:40;;;;;;;8.00;1.80;;;;;;;;;;5006991;28;20054;-58
2023/04/02 04:48:19;;;;;;;6.60;1.65;;;;;;;;;;5010924;28;20042;-58
2023/04/02 04:50:54;;;;;;;3.13;1.60;;;;;;;;;;5007846;28;21501;-58
2023/04/02 04:53:22;;;;;;;5.15;2.13;;;;;;;;;;5005470;28;20495;-59
2023/04/02 04:55:50;;;;;;;4.50;2.03;;;;;;;;;;5035910;28;20099;-58
2023/04/02 04:58:18;;;;;;;4.20;1.60;;;;;;;;;;5024438;28;20057;-59
2023/04/02 05:01:03;;;;;;;4.28;1.80;;;;;;;;;;5009784;28;20044;-59
2023/04/02 05:03:33;;;;;;;3.05;1.95;;;;;;;;;;5013225;28;20061;-58
2023/04/02 05:06:08;;;;;;;2.85;1.38;;;;;;;;;;5011714;28;20917;-59
2023/04/02 05:08:36;;;;;;;1.67;1.30;;;;;;;;;;5001740;28;20050;-59
2023/04/02 05:11:08;;;;;;;2.58;1.83;;;;;;;;;;5000895;28;20037;-59
2023/04/02 05:13:44;;;;;;;3.17;1.92;;;;;;;;;;5003125;28;20037;-58
2023/04/02 05:16:10;;;;;;;2.90;1.60;;;;;;;;;;5011092;28;20056;-58
2023/04/02 05:18:41;;;;;;;2.55;1.63;;;;;;;;;;5008049;28;20145;-59
2023/04/02 05:21:25;;;;;;;3.03;1.30;;;;;;;;;;5009175;28;20125;-58
2023/04/02 05:23:59;;;;;;;1.77;1.40;;;;;;;;;;5004337;28;20045;-60
2023/04/02 05:26:30;;;;;;;3.42;2.00;;;;;;;;;;5002663;28;21315;-58
2023/04/02 05:29:07;;;;;;;1.88;1.42;;;;;;;;;;5001403;28;20050;-58
2023/04/02 05:31:36;;;;;;;1.98;1.73;;;;;;;;;;5000890;28;20056;-59
2023/04/02 05:34:03;;;;;;;4.18;1.70;;;;;;;;;;5006303;28;20069;-57
2023/04/02 05:36:29;;;;;;;2.28;1.33;;;;;;;;;;5010268;28;20046;-58
2023/04/02 05:38:56;;;;;;;2.63;1.48;;;;;;;;;;5008981;28;20049;-60
2023/04/02 05:41:22;;;;;;;1.42;1.05;;;;;;;;;;5012656;28;20094;-58
2023/04/02 05:43:50;;;;;;;1.50;1.00;;;;;;;;;;5010757;28;20077;-58
2023/04/02 05:46:18;;;;;;;2.80;1.85;;;;;;;;;;5023077;28;20045;-58
2023/04/02 05:48:48;;;;;;;2.97;1.63;;;;;;;;;;5008977;28;20559;-58
2023/04/02 05:51:20;;;;;;;1.98;1.27;;;;;;;;;;5043217;28;20052;-58
2023/04/02 05:53:49;;;;;;;2.90;1.40;;;;;;;;;;5008550;28;20049;-58
2023/04/02 05:56:15;;;;;;;2.08;1.48;;;;;;;;;;5007066;28;20065;-58
2023/04/02 05:58:44;;;;;;;1.33;1.20;;;;;;;;;;5004734;28;20145;-59
2023/04/02 06:01:27;;;;;;;3.22;1.77;;;;;;;;;;4999890;28;20085;-59
2023/04/02 06:03:53;;;;;;;2.53;1.45;;;;;;;;;;5004396;28;20578;-58
2023/04/02 06:06:40;;;;;;;3.05;1.63;;;;;;;;;;5002021;28;20492;-59
2023/04/02 06:09:12;;;;;;;1.08;0.82;;;;;;;;;;5005770;28;20064;-59
2023/04/02 06:11:41;;;;;;;2.17;0.95;;;;;;;;;;5003804;28;20038;-58
2023/04/02 06:14:11;;;;;;;2.45;1.40;;;;;;;;;;5004396;28;20034;-58
2023/04/02 06:16:37;;;;;;;2.80;1.60;;;;;;;;;;5012051;28;20053;-58
2023/04/02 06:19:10;;;;;;;3.03;1.08;;;;;;;;;;5012174;28;20137;-59
2023/04/02 06:21:42;;;;;;;3.97;1.80;;;;;;;;;;5010009;28;20049;-59
2023/04/02 06:24:11;;;;;;;3.20;1.90;;;;;;;;;;5011314;28;20034;-59
2023/04/02 06:26:42;;;;;;;4.65;2.13;;;;;;;;;;5011395;28;21231;-59
2023/04/02 06:29:27;;;;;;;3.95;2.45;;;;;;;;;;5012292;28;20050;-59
2023/04/02 06:31:55;;;;;;;4.97;2.63;;;;;;;;;;5011285;28;20049;-59
2023/04/02 06:34:23;;;;;;;3.55;2.67;;;;;;;;;;5009640;28;20061;-58
2023/04/02 06:36:50;;;;;;;5.05;2.00;;;;;;;;;;5008848;28;20038;-59
2023/04/02 06:39:21;;;;;;;6.82;3.00;;;;;;;;;;5009783;28;20515;-59
2023/04/02 06:41:55;;;;;;;4.32;2.90;;;;;;;;;;5004034;28;20057;-59
2023/04/02 06:44:22;;;;;;;8.60;2.47;;;;;;;;;;5007645;28;20109;-59
2023/04/02 06:46:51;;;;;;;6.40;3.20;;;;;;;;;;5007517;28;20048;-59
2023/04/02 06:49:20;;;;;;;4.97;2.33;;;;;;;;;;5007033;28;20087;-59
2023/04/02 06:51:48;;;;;;;3.13;2.20;;;;;;;;;;5023744;28;20528;-59
2023/04/02 06:54:15;;;;;;;3.08;1.88;;;;;;;;;;5003772;28;20098;-59
2023/04/02 06:56:41;;;;;;;8.18;2.97;;;;;;;;;;5007560;28;20050;-59
2023/04/02 06:59:07;;;;;;;4.07;2.97;;;;;;;;;;5023683;28;20614;-59
2023/04/02 07:01:37;;;;;;;4.90;3.40;;;;;;;;;;5008036;28;20068;-59
2023/04/02 07:04:03;;;;;;;5.40;2.78;;;;;;;;;;5007514;28;20578;-59
2023/04/02 07:06:29;;;;;;;4.95;2.95;;;;;;;;;;5006093;28;20038;-58
2023/04/02 07:08:55;;;;;;;4.97;2.80;;;;;;;;;;5023491;28;20050;-61
2023/04/02 07:11:21;;;;;;;6.43;3.42;;;;;;;;;;5004758;28;20046;-59
2023/04/02 07:13:48;;;;;;;6.18;4.00;;;;;;;;;;5009530;28;20168;-58
2023/04/02 07:16:15;;;;;;;4.68;2.17;;;;;;;;;;5008182;28;20042;-59
2023/04/02 07:18:41;;;;;;;5.25;2.85;;;;;;;;;;5008592;28;21464;-59
2023/04/02 07:21:07;;;;;;;4.72;3.25;;;;;;;;;;5007196;28;21850;-59
2023/04/02 07:23:33;;;;;;;5.25;3.03;;;;;;;;;;5029771;28;20056;-59
2023/04/02 07:26:01;;;;;;;6.85;3.00;;;;;;;;;;5011074;28;20501;-59
2023/04/02 07:28:27;;;;;;;4.65;3.28;;;;;;;;;;5014699;28;20409;-58
2023/04/02 07:30:54;;;;;;;4.15;3.03;;;;;;;;;;5009922;28;20631;-59
2023/04/02 07:33:22;;;;;;;4.85;2.90;;;;;;;;;;5012212;28;20058;-59
2023/04/02 07:35:49;;;;;;;4.60;2.55;;;;;;;;;;5013326;28;20401;-59
2023/04/02 07:38:15;;;;;;;7.90;3.88;;;;;;;;;;5014204;28;20046;-59
2023/04/02 07:40:41;;;;;;;7.80;3.38;;;;;;;;;;5013407;28;20047;-59
2023/04/02 07:43:07;;;;;;;5.20;3.47;;;;;;;;;;5012986;28;20041;-58
2023/04/02 07:45:34;;;;;;;3.75;2.13;;;;;;;;;;5014950;28;20053;-59
2023/04/02 07:48:07;;;;;;;6.18;3.20;;;;;;;;;;5015966;28;20106;-58
2023/04/02 07:50:33;;;;;;;6.07;3.25;;;;;;;;;;5014494;28;20050;-59
2023/04/02 07:53:00;;;;;;;6.32;2.55;;;;;;;;;;5013779;28;20579;-58
2023/04/02 07:55:26;;;;;;;3.58;2.78;;;;;;;;;;5014900;28;20034;-59
2023/04/02 07:57:53;;;;;;;3.58;2.70;;;;;;;;;;5014136;28;20072;-59
2023/04/02 08:00:20;;;;;;;7.47;3.10;;;;;;;;;;5012643;28;20080;-59
2023/04/02 08:02:46;;;;;;;7.60;3.50;;;;;;;;;;5013767;28;20061;-59
2023/04/02 08:05:12;;;;;;;7.25;2.75;;;;;;;;;;5013911;28;20078;-59
2023/04/02 08:07:40;;;;;;;6.20;3.17;;;;;;;;;;5007264;28;20129;-59
2023/04/02 08:10:06;;;;;;;7.00;2.72;;;;;;;;;;5012929;28;20045;-59
2023/04/02 08:12:33;;;;;;;4.72;2.78;;;;;;;;;;5008970;28;20149;-59
2023/04/02 08:14:59;;;;;;;3.30;2.38;;;;;;;;;;5006044;28;20341;-59
2023/04/02 08:17:30;;;;;;;6.40;2.67;;;;;;;;;;5007559;28;20590;-59
2023/04/02 08:19:59;;;;;;;7.00;2.50;;;;;;;;;;5011786;28;20049;-59
2023/04/02 08:22:26;;;;;;;8.32;2.13;;;;;;;;;;5012179;28;20038;-59
2023/04/02 08:24:52;;;;;;;4.72;2.97;;;;;;;;;;5009760;28;20038;-58
2023/04/02 08:27:18;;;;;;;3.97;2.42;;;;;;;;;;5011648;28;20185;-58
2023/04/02 08:29:45;;;;;;;3.33;1.63;;;;;;;;;;5008866;28;20052;-58
2023/04/02 08:32:12;;;;;;;2.42;1.20;;;;;;;;;;5009108;28;20045;-59
2023/04/02 08:34:38;;;;;;;4.78;2.05;;;;;;;;;;5009670;28;20524;-59
2023/04/02 08:37:04;;;;;;;4.68;2.30;;;;;;;;;;5010212;28;20054;-59
2023/04/02 08:39:31;;;;;;;4.55;2.10;;;;;;;;;;5009382;28;20567;-58
2023/04/02 08:42:01;;;;;;;2.20;1.30;;;;;;;;;;5040015;28;20660;-58
2023/04/02 08:44:32;;;;;;;8.40;2.17;;;;;;;;;;5007630;28;20574;-58
2023/04/02 08:47:05;;;;;;;2.47;1.67;;;;;;;;;;5008757;28;20124;-59
2023/04/02 08:49:35;;;;;;;5.93;2.03;;;;;;;;;;5008466;28;20117;-58
2023/04/02 08:52:01;;;;;;;4.57;1.90;;;;;;;;;;5011457;28;20617;-58
2023/04/02 08:54:32;;;;;;;2.63;2.00;;;;;;;;;;5008436;28;20045;-58
2023/04/02 08:57:01;;;;;;;2.88;1.92;;;;;;;;;;5009941;28;20077;-58
2023/04/02 08:59:34;;;;;;;6.45;2.40;;;;;;;;;;5012714;28;20124;-59
2023/04/02 09:02:22;;;;;;;3.08;1.55;;;;;;;;;;5013009;28;20038;-58
2023/04/02 09:04:48;;;;;;;6.55;2.00;;;;;;;;;;5013868;28;20052;-58
2023/04/02 09:07:15;;;;;;;3.17;1.98;;;;;;;;;;5012502;28;20668;-58
2023/04/02 09:09:42;;;;;;;4.10;2.10;;;;;;;;;;5008493;28;20125;-58
2023/04/02 09:12:18;;;;;;;8.82;2.97;;;;;;;;;;5007983;28;20472;-59
2023/04/02 09:15:07;;;;;;;5.93;2.22;;;;;;;;;;5008971;28;20050;-59
2023/04/02 09:17:33;;;;;;;5.78;2.40;;;;;;;;;;5012198;28;20085;-58
2023/04/02 09:20:20;;;;;;;7.38;2.95;;;;;;;;;;5011976;28;20468;-58
2023/04/02 09:22:47;;;;;;;7.22;2.00;;;;;;;;;;5010519;28;20042;-58
2023/04/02 09:25:20;;;;;;;6.80;2.70;;;;;;;;;;5026719;28;20444;-59
2023/04/02 09:27:50;;;;;;;7.40;2.65;;;;;;;;;;5005876;28;20050;-59
2023/04/02 09:30:31;;;;;;;7.60;1.90;;;;;;;;;;5007264;28;20042;-59
2023/04/02 09:33:00;;;;;;;6.33;2.83;;;;;;;;;;5007115;28;20585;-58
2023/04/02 09:35:31;;;;;;;5.97;3.00;;;;;;;;;;5007094;28;20034;-59
2023/04/02 09:38:09;;;;;;;4.32;2.50;;;;;;;;;;5006388;28;20050;-58
2023/04/02 09:40:45;;;;;;;3.70;2.75;;;;;;;;;;5009273;28;20493;-58
2023/04/02 09:43:13;;;;;;;4.72;2.80;;;;;;;;;;5006798;28;20457;-59
2023/04/02 09:45:41;;;;;;;14.23;4.60;;;;;;;;;;5004042;28;20136;-58
2023/04/02 09:48:38;;;;;;;4.43;1.75;;;;;;;;;;5003599;28;20477;-59
2023/04/02 09:51:07;;;;;;;6.78;2.58;;;;;;;;;;5005103;28;20042;-58
2023/04/02 09:53:35;;;;;;;7.47;3.85;;;;;;;;;;5005339;28;20925;-58
2023/04/02 09:56:09;;;;;;;6.55;3.38;;;;;;;;;;5021066;28;20044;-59
2023/04/02 09:58:35;;;;;;;8.57;3.22;;;;;;;;;;5011317;28;20046;-59
2023/04/02 10:01:01;;;;;;;6.47;3.35;;;;;;;;;;4999774;28;20040;-58
2023/04/02 10:03:29;;;;;;;8.52;2.67;;;;;;;;;;5003535;28;21282;-58
2023/04/02 10:06:25;;;;;;;7.50;3.38;;;;;;;;;;5005734;28;20513;-59
2023/04/02 10:08:51;;;;;;;7.78;2.50;;;;;;;;;;4999684;28;20185;-58
2023/04/02 10:11:20;;;;;;;13.77;5.05;;;;;;;;;;5001225;28;20035;-58
2023/04/02 10:13:54;;;;;;;5.32;2.72;;;;;;;;;;5002399;28;21005;-58
2023/04/02 10:16:25;;;;;;;8.93;3.85;;;;;;;;;;5003885;28;21028;-59
2023/04/02 10:18:55;;;;;;;8.70;3.58;;;;;;;;;;5007369;28;20042;-60
2023/04/02 10:21:41;;;;;;;7.40;2.83;;;;;;;;;;5000404;28;20038;-58
2023/04/02 10:24:17;;;;;;;10.55;2.92;;;;;;;;;;5022868;28;20241;-59
2023/04/02 10:26:43;;;;;;;5.63;2.90;;;;;;;;;;5000351;28;20119;-59
2023/04/02 10:29:20;;;;;;;6.95;3.15;;;;;;;;;;5005490;28;20521;-58
2023/04/02 10:31:55;;;;;;;13.45;4.07;;;;;;;;;;5004977;28;20056;-59
2023/04/02 10:34:23;;;;;;;8.32;3.03;;;;;;;;;;5004282;28;20088;-58
2023/04/02 10:36:54;;;;;;;5.60;2.92;;;;;;;;;;5019094;28;20560;-59
2023/04/02 10:39:20;;;;;;;13.13;3.03;;;;;;;;;;5004477;28;20057;-59
2023/04/02 10:41:55;;;;;;;8.50;2.92;;;;;;;;;;5004011;28;20045;-58
2023/04/02 10:44:36;;;;;;;9.57;2.78;;;;;;;;;;4999384;28;20603;-59
2023/04/02 10:47:02;;;;;;;20.60;6.50;;;;;;;;;;5008106;28;20440;-58
2023/04/02 10:49:28;;;;;;;21.58;4.30;;;;;;;;;;5003702;28;20179;-58
2023/04/02 10:52:20;;;;;;;6.75;3.00;;;;;;;;;;5008127;28;20591;-58
2023/04/02 10:54:50;;;;;;;12.95;5.00;;;;;;;;;;5007003;28;20937;-58
2023/04/02 10:57:25;;;;;;;6.22;3.05;;;;;;;;;;5005755;28;20068;-59
2023/04/02 10:59:59;;;;;;;7.45;2.97;;;;;;;;;;5001877;28;20045;-59
2023/04/02 11:02:38;;;;;;;14.30;3.10;;;;;;;;;;5005048;28;20060;-58
2023/04/02 11:05:14;;;;;;;8.65;3.85;;;;;;;;;;5008209;28;20209;-59
2023/04/02 11:07:52;;;;;;;11.70;4.10;;;;;;;;;;5002888;28;20048;-58
2023/04/02 11:10:19;;;;;;;14.98;5.13;;;;;;;;;;5038599;28;20488;-58
2023/04/02 11:13:09;;;;;;;6.03;3.13;;;;;;;;;;5004086;28;20515;-58
2023/04/02 11:15:35;;;;;;;11.10;4.03;;;;;;;;;;5007932;28;20046;-58
2023/04/02 11:18:02;;;;;;;10.73;3.53;;;;;;;;;;5005249;28;20054;-58
2023/04/02 11:20:46;;;;;;;8.73;2.25;;;;;;;;;;5037180;28;20700;-58
2023/04/02 11:23:14;;;;;;;14.23;3.97;;;;;;;;;;5007343;28;20073;-58
2023/04/02 11:25:41;;;;;;;9.23;3.30;;;;;;;;;;5005586;28;20034;-58
2023/04/02 11:28:19;;;;;;;6.70;2.75;;;;;;;;;;5005673;28;20046;-58
2023/04/02 11:30:47;;;;;;;8.60;2.58;;;;;;;;;;5003317;28;21189;-58
2023/04/02 11:33:34;;;;;;;17.20;4.95;;;;;;;;;;5033360;28;20049;-58
2023/04/02 11:36:01;;;;;;;10.27;4.68;;;;;;;;;;5007558;28;20121;-58
2023/04/02 11:38:27;;;;;;;8.95;3.30;;;;;;;;;;5007185;28;20089;-58
2023/04/02 11:40:57;;;;;;;5.32;2.55;;;;;;;;;;5003903;28;20096;-58
2023/04/02 11:43:36;;;;;;;4.95;1.85;;;;;;;;;;5007114;28;20041;-59
2023/04/02 11:46:20;;;;;;;9.52;5.13;;;;;;;;;;5000392;28;20177;-57
2023/04/02 11:48:47;;;;;;;8.23;3.25;;;;;;;;;;5007558;28;20042;-58
2023/04/02 11:51:22;;;;;;;10.38;3.42;;;;;;;;;;5007896;28;20046;-59
2023/04/02 11:53:49;;;;;;;7.47;3.42;;;;;;;;;;5008412;28;20057;-60
2023/04/02 11:56:33;;;;;;;6.40;2.63;;;;;;;;;;5004167;28;20042;-59
2023/04/02 11:59:05;;;;;;;12.75;2.95;;;;;;;;;;5011210;28;20046;-58
2023/04/02 12:01:44;;;;;;;9.32;3.00;;;;;;;;;;5008177;28;20042;-58
2023/04/02 12:04:10;;;;;;;11.88;4.55;;;;;;;;;;5012931;28;20053;-59
2023/04/02 12:06:54;;;;;;;14.80;3.10;;;;;;;;;;5011026;28;20046;-58
2023/04/02 12:09:23;;;;;;;7.18;2.70;;;;;;;;;;5010635;28;20038;-58
2023/04/02 12:12:16;;;;;;;8.02;3.10;;;;;;;;;;5004493;28;20173;-58
2023/04/02 12:14:50;;;;;;;13.07;4.47;;;;;;;;;;5012486;28;20069;-58
2023/04/02 12:17:29;;;;;;;9.00;3.17;;;;;;;;;;5010883;28;20141;-58
2023/04/02 12:20:07;;;;;;;12.85;3.38;;;;;;;;;;5010351;28;20503;-58
2023/04/02 12:22:34;;;;;;;12.43;3.70;;;;;;;;;;5012218;28;20611;-58
2023/04/02 12:25:03;;;;;;;14.43;3.80;;;;;;;;;;5009905;28;20046;-59
2023/04/02 12:27:29;;;;;;;10.57;3.13;;;;;;;;;;5006069;28;20524;-58
2023/04/02 12:30:13;;;;;;;9.88;3.85;;;;;;;;;;5008776;28;20051;-59
2023/04/02 12:32:39;;;;;;;6.05;3.08;;;;;;;;;;5009157;28;20046;-58
2023/04/02 12:35:07;;;;;;;11.50;4.03;;;;;;;;;;5010944;28;20050;-59
2023/04/02 12:37:33;;;;;;;9.68;4.43;;;;;;;;;;5008668;28;20041;-59
2023/04/02 12:40:01;;;;;;;10.90;3.75;;;;;;;;;;5006853;28;20114;-59
2023/04/02 12:42:28;;;;;;;4.28;2.35;;;;;;;;;;5008686;28;20078;-58
2023/04/02 12:44:55;;;;;;;9.68;3.55;;;;;;;;;;5006964;28;20042;-58
2023/04/02 12:47:21;;;;;;;10.48;3.22;;;;;;;;;;5011821;28;20053;-59
2023/04/02 12:49:47;;;;;;;6.85;2.97;;;;;;;;;;5013624;28;21564;-58
2023/04/02 12:52:15;;;;;;;7.05;3.58;;;;;;;;;;5004981;28;20057;-58
2023/04/02 12:54:46;;;;;;;5.93;2.40;;;;;;;;;;5013500;28;20065;-58
2023/04/02 12:57:22;;;;;;;13.85;3.03;;;;;;;;;;5013697;28;20292;-58
2023/04/02 12:59:49;;;;;;;8.23;3.63;;;;;;;;;;5012245;28;20085;-58
2023/04/02 13:02:19;;;;;;;11.52;4.22;;;;;;;;;;5010191;28;20602;-59
2023/04/02 13:04:48;;;;;;;5.25;2.63;;;;;;;;;;5012825;28;20045;-58
2023/04/02 13:07:16;;;;;;;12.80;3.15;;;;;;;;;;5004074;28;20037;-59
2023/04/02 13:09:52;;;;;;;12.50;3.97;;;;;;;;;;5008235;28;20535;-58
2023/04/02 13:12:39;;;;;;;10.07;3.72;;;;;;;;;;5008475;28;20112;-58
2023/04/02 13:15:09;;;;;;;11.05;3.45;;;;;;;;;;5003713;28;20044;-58
2023/04/02 13:17:36;;;;;;;17.70;4.85;;;;;;;;;;5013201;28;20042;-58
2023/04/02 13:20:21;;;;;;;10.35;2.85;;;;;;;;;;5007085;28;20046;-58
2023/04/02 13:22:47;;;;;;;9.02;3.78;;;;;;;;;;5006268;28;20042;-59
2023/04/02 13:25:13;;;;;;;14.10;3.83;;;;;;;;;;5008626;28;20088;-58
2023/04/02 13:27:39;;;;;;;8.85;4.65;;;;;;;;;;5005186;28;20038;-59
2023/04/02 13:30:07;;;;;;;8.68;2.13;;;;;;;;;;5006916;28;20058;-58
2023/04/02 13:32:33;;;;;;;6.97;3.25;;;;;;;;;;5007039;28;20046;-58
2023/04/02 13:35:00;;;;;;;9.38;3.47;;;;;;;;;;5008061;28;20631;-58
2023/04/02 13:37:26;;;;;;;12.70;3.35;;;;;;;;;;5007021;28;20416;-58
2023/04/02 13:39:52;;;;;;;14.13;3.33;;;;;;;;;;5010224;28;20049;-58
2023/04/02 13:42:18;;;;;;;8.60;3.30;;;;;;;;;;5010080;28;20069;-59
2023/04/02 13:44:46;;;;;;;10.07;3.72;;;;;;;;;;5013142;28;20046;-58
2023/04/02 13:47:15;;;;;;;10.13;3.25;;;;;;;;;;5006003;28;20045;-58
2023/04/02 13:49:42;;;;;;;9.70;3.38;;;;;;;;;;5040801;28;20045;-59
2023/04/02 13:52:13;;;;;;;12.43;3.40;;;;;;;;;;5011155;28;20149;-59
2023/04/02 13:54:49;;;;;;;13.48;3.72;;;;;;;;;;5014146;28;20431;-59
2023/04/02 13:57:16;;;;;;;10.90;2.95;;;;;;;;;;5010471;28;20579;-58
2023/04/02 13:59:42;;;;;;;11.75;3.95;;;;;;;;;;5010901;28;20508;-58
2023/04/02 14:02:10;;;;;;;19.40;5.03;;;;;;;;;;5011393;28;20563;-59
2023/04/02 14:04:45;;;;;;;11.00;3.42;;;;;;;;;;5013334;28;20042;-59
2023/04/02 14:07:11;;;;;;;14.05;3.88;;;;;;;;;;5011502;28;20555;-58
2023/04/02 14:09:42;;;;;;;9.48;3.92;;;;;;;;;;5010345;28;20335;-59
2023/04/02 14:12:08;;;;;;;9.77;2.70;;;;;;;;;;5011884;28;20092;-58
2023/04/02 14:14:37;;;;;;;9.48;2.47;;;;;;;;;;5010744;28;20548;-59
2023/04/02 14:17:26;;;;;;;6.30;2.50;;;;;;;;;;5009949;28;20046;-58
2023/04/02 14:20:11;;;;;;;12.35;3.35;;;;;;;;;;5009240;28;20060;-58
2023/04/02 14:22:48;;;;;;;13.25;5.88;;;;;;;;;;5010164;28;20086;-58
2023/04/02 14:25:17;;;;;;;12.43;3.50;;;;;;;;;;5012856;28;20693;-59
2023/04/02 14:27:46;;;;;;;13.38;3.80;;;;;;;;;;5011938;28;20148;-59
2023/04/02 14:30:21;;;;;;;14.15;4.43;;;;;;;;;;5009088;28;20092;-59
2023/04/02 14:33:00;;;;;;;5.63;2.72;;;;;;;;;;5011568;28;20778;-58
2023/04/02 14:35:32;;;;;;;12.85;4.20;;;;;;;;;;5003414;28;20108;-58
2023/04/02 14:37:58;;;;;;;;;;;;;;;;;;5012365;28;20038;-58
2023/04/02 14:40:29;;;;;;;18.20;4.05;;;;;;;;;;5011200;28;19922;-59
2023/04/02 14:43:01;;;;;;;10.15;2.58;;;;;;;;;;5010801;28;20034;-58
2023/04/02 14:45:35;;;;;;;13.43;4.80;;;;;;;;;;5011772;28;20097;-59
2023/04/02 14:48:04;;;;;;;9.13;4.07;;;;;;;;;;5009529;28;20061;-58
2023/04/02 14:50:34;;;;;;;9.27;3.92;;;;;;;;;;5010269;28;20053;-58
2023/04/02 14:53:03;;;;;;;14.43;3.85;;;;;;;;;;5012691;28;20057;-58
2023/04/02 14:55:38;;;;;;;11.43;3.58;;;;;;;;;;5012914;28;20513;-58
2023/04/02 14:58:09;;;;;;;11.43;3.67;;;;;;;;;;5000922;28;20465;-59
2023/04/02 15:00:38;;;;;;;11.90;2.78;;;;;;;;;;5000111;28;20049;-59
2023/04/02 15:03:23;;;;;;;17.10;4.60;;;;;;;;;;5005649;28;20133;-59